Time;durP1;ratioP1;P1;durP2;ratioP2;P2;SDS_P1;SDS_P2;PMS_P1;PMS_P2;Temp;Humidity;BMP_temperature;BMP_pressure;BME280_temperature;BME280_humidity;BME280_pressure;Samples;Min_cycle;Max_cycle;Signal;HPM_P1;HPM_P2
2023/08/03 00:00:21;;;;;;;;;;;;;;;15.39;100.00;98814.06;5051023;28;1281;-77
2023/08/03 00:02:47;;;;;;;;;;;;;;;15.43;100.00;98821.50;5035696;28;1213;-77
2023/08/03 00:05:16;;;;;;;;;;;;;;;15.41;100.00;98814.63;5056271;28;1922;-77
2023/08/03 00:07:42;;;;;;;;;;;;;;;15.41;100.00;98822.47;5051543;28;1334;-76
2023/08/03 00:10:07;;;;;;;;;;;;;;;15.38;100.00;98825.53;5048050;28;1979;-76
2023/08/03 00:12:32;;;;;;;;;;;;;;;15.36;100.00;98827.50;5056286;28;1571;-76
2023/08/03 00:14:57;;;;;;;;;;;;;;;15.34;100.00;98824.31;5054813;28;1274;-75
2023/08/03 00:17:23;;;;;;;;;;;;;;;15.35;100.00;98831.13;5053144;28;1137;-76
2023/08/03 00:19:48;;;;;;;;;;;;;;;15.36;100.00;98835.34;5058477;28;1107;-76
2023/08/03 00:22:13;;;;;;;;;;;;;;;15.38;100.00;98830.75;5061441;28;1063;-75
2023/08/03 00:24:39;;;;;;;;;;;;;;;15.38;100.00;98835.97;5055398;28;1906;-75
2023/08/03 00:27:05;;;;;;;;;;;;;;;15.39;100.00;98840.19;5057590;28;1166;-77
2023/08/03 00:29:30;;;;;;;;;;;;;;;15.41;100.00;98838.16;5041257;28;1196;-77
2023/08/03 00:31:55;;;;;;;;;;;;;;;15.41;100.00;98851.22;5060306;28;1576;-77
2023/08/03 00:34:20;;;;;;;;;;;;;;;15.44;100.00;98849.22;5062995;28;1075;-78
2023/08/03 00:36:45;;;;;;;;;;;;;;;15.48;100.00;98856.41;5054238;28;1066;-77
2023/08/03 00:39:11;;;;;;;;;;;;;;;15.46;100.00;98852.41;5060155;28;1196;-77
2023/08/03 00:41:36;;;;;;;;;;;;;;;15.47;100.00;98859.25;5057641;28;912;-77
2023/08/03 00:44:01;;;;;;;;;;;;;;;15.50;100.00;98871.91;5037780;28;1899;-77
2023/08/03 00:46:26;;;;;;;;;;;;;;;15.51;100.00;98876.13;5055840;28;1388;-77
2023/08/03 00:48:52;;;;;;;;;;;;;;;15.54;100.00;98886.16;5051620;28;1232;-77
2023/08/03 00:51:17;;;;;;;;;;;;;;;15.56;100.00;98894.59;5056459;28;1387;-77
2023/08/03 00:53:45;;;;;;;;;;;;;;;15.58;100.00;98887.34;5048191;28;1205;-77
2023/08/03 00:56:11;;;;;;;;;;;;;;;15.61;100.00;98892.19;5057244;28;1317;-77
2023/08/03 00:58:36;;;;;;;;;;;;;;;15.62;100.00;98893.78;5058858;28;1180;-77
2023/08/03 01:01:01;;;;;;;;;;;;;;;15.64;100.00;98910.09;5054027;28;1013;-77
2023/08/03 01:03:26;;;;;;;;;;;;;;;15.65;100.00;98914.31;5055947;28;1142;-77
2023/08/03 01:05:52;;;;;;;;;;;;;;;15.65;100.00;98909.06;5057048;28;1894;-78
2023/08/03 01:08:17;;;;;;;;;;;;;;;15.66;100.00;98906.28;5053654;28;1311;-77
2023/08/03 01:10:42;;;;;;;;;;;;;;;15.68;100.00;98908.69;5061790;28;1153;-77
2023/08/03 01:13:08;;;;;;;;;;;;;;;15.69;100.00;98915.50;5056564;28;1353;-78
2023/08/03 01:15:33;;;;;;;;;;;;;;;15.71;100.00;98923.94;5062664;28;1191;-77
2023/08/03 01:17:58;;;;;;;;;;;;;;;15.73;100.00;98921.94;5059311;28;1147;-77
2023/08/03 01:20:23;;;;;;;;;;;;;;;15.74;100.00;98926.16;5054645;28;1193;-77
2023/08/03 01:22:49;;;;;;;;;;;;;;;15.75;100.00;98940.81;5062633;28;1215;-77
2023/08/03 01:25:14;;;;;;;;;;;;;;;15.77;100.00;98938.81;5057467;28;1956;-77
2023/08/03 01:27:40;;;;;;;;;;;;;;;15.82;100.00;98941.59;5061261;28;1267;-77
2023/08/03 01:30:05;;;;;;;;;;;;;;;15.82;100.00;98952.06;5061889;28;1079;-77
2023/08/03 01:32:31;;;;;;;;;;;;;;;15.84;100.00;98960.53;5060832;28;1153;-77
2023/08/03 01:34:56;;;;;;;;;;;;;;;15.86;100.00;98961.09;5052480;28;1343;-77
2023/08/03 01:37:21;;;;;;;;;;;;;;;15.88;100.00;98971.34;5057635;28;1227;-77
2023/08/03 01:39:47;;;;;;;;;;;;;;;15.89;100.00;98973.78;5059336;28;1098;-77
2023/08/03 01:42:12;;;;;;;;;;;;;;;15.89;100.00;98968.56;5060602;28;1077;-77
2023/08/03 01:44:38;;;;;;;;;;;;;;;15.89;100.00;98968.56;5060133;28;1914;-76
2023/08/03 01:47:03;;;;;;;;;;;;;;;15.90;100.00;98980.63;5062426;28;1144;-77
2023/08/03 01:49:29;;;;;;;;;;;;;;;15.87;100.00;98980.22;5056034;28;1347;-76
2023/08/03 01:51:55;;;;;;;;;;;;;;;15.87;100.00;98975.78;5051522;28;1368;-75
2023/08/03 01:54:20;;;;;;;;;;;;;;;15.87;100.00;98980.22;5055235;28;1395;-76
2023/08/03 01:56:45;;;;;;;;;;;;;;;15.89;100.00;98972.97;5040828;28;1444;-76
2023/08/03 01:59:10;;;;;;;;;;;;;;;15.88;100.00;98981.81;5059182;28;1407;-76
2023/08/03 02:01:36;;;;;;;;;;;;;;;15.88;100.00;98989.66;5055859;28;1382;-77
2023/08/03 02:04:01;;;;;;;;;;;;;;;15.89;100.00;98988.66;5055496;28;1894;-77
2023/08/03 02:06:27;;;;;;;;;;;;;;;15.91;100.00;98995.28;5058074;28;1364;-77
2023/08/03 02:08:52;;;;;;;;;;;;;;;15.90;100.00;98985.84;5059484;28;1210;-77
2023/08/03 02:11:17;;;;;;;;;;;;;;;15.92;100.00;98988.25;5056508;28;1342;-77
2023/08/03 02:13:42;;;;;;;;;;;;;;;15.92;100.00;98989.03;5058239;28;1612;-77
2023/08/03 02:16:10;;;;;;;;;;;;;;;15.91;100.00;98987.44;5057191;28;1345;-77
2023/08/03 02:18:35;;;;;;;;;;;;;;;15.93;100.00;98990.66;5061018;28;1448;-77
2023/08/03 02:21:01;;;;;;;;;;;;;;;15.95;100.00;98992.28;5054179;28;1484;-77
2023/08/03 02:23:26;;;;;;;;;;;;;;;15.95;100.00;98997.50;5060961;28;1856;-77
2023/08/03 02:25:51;;;;;;;;;;;;;;;15.93;100.00;98995.88;5056322;28;1886;-77
2023/08/03 02:28:16;;;;;;;;;;;;;;;15.94;100.00;98991.44;5041958;28;1331;-78
2023/08/03 02:30:41;;;;;;;;;;;;;;;15.95;100.00;98987.03;5054272;28;1427;-77
2023/08/03 02:33:07;;;;;;;;;;;;;;;15.96;100.00;98988.66;5058234;28;1401;-77
2023/08/03 02:35:34;;;;;;;;;;;;;;;15.93;100.00;98985.41;5056228;28;1331;-76
2023/08/03 02:37:59;;;;;;;;;;;;;;;15.96;100.00;98988.66;5053870;28;1132;-74
2023/08/03 02:40:24;;;;;;;;;;;;;;;15.96;100.00;98988.66;5050302;28;1464;-74
2023/08/03 02:42:49;;;;;;;;;;;;;;;15.93;100.00;98985.41;5055841;28;1247;-75
2023/08/03 02:45:15;;;;;;;;;;;;;;;15.93;100.00;99000.31;5060693;28;1902;-76
2023/08/03 02:47:40;;;;;;;;;;;;;;;15.93;100.00;98990.66;5061584;28;1095;-74
2023/08/03 02:50:05;;;;;;;;;;;;;;;15.87;100.00;99015.00;5059071;28;1180;-75
2023/08/03 02:52:30;;;;;;;;;;;;;;;15.86;100.00;99005.53;5063681;28;950;-74
2023/08/03 02:54:55;;;;;;;;;;;;;;;15.84;100.00;99009.38;5051268;28;1430;-73
2023/08/03 02:57:21;;;;;;;;;;;;;;;15.77;100.00;98987.66;5055137;28;1153;-75
2023/08/03 02:59:46;;;;;;;;;;;;;;;15.71;100.00;98984.03;5063166;28;1259;-76
2023/08/03 03:02:11;;;;;;;;;;;;;;;15.65;100.00;98987.47;5050570;28;1251;-79
2023/08/03 03:04:36;;;;;;;;;;;;;;;15.62;100.00;98986.09;5053739;28;1960;-79
2023/08/03 03:07:02;;;;;;;;;;;;;;;15.61;100.00;98991.50;5061486;28;1132;-80
2023/08/03 03:09:27;;;;;;;;;;;;;;;15.61;100.00;98996.72;5059132;28;1292;-79
2023/08/03 03:11:55;;;;;;;;;;;;;;;15.60;100.00;99001.13;5058727;28;1302;-79
2023/08/03 03:14:20;;;;;;;;;;;;;;;15.60;100.00;99016.03;5057116;28;1307;-79
2023/08/03 03:16:46;;;;;;;;;;;;;;;15.59;100.00;98996.09;5037664;28;1653;-80
2023/08/03 03:19:11;;;;;;;;;;;;;;;15.60;100.00;98995.91;5059408;28;1147;-80
2023/08/03 03:21:36;;;;;;;;;;;;;;;15.62;100.00;99008.78;5054134;28;1349;-78
2023/08/03 03:24:01;;;;;;;;;;;;;;;15.60;100.00;99005.56;5058942;28;1898;-77
2023/08/03 03:26:26;;;;;;;;;;;;;;;15.60;100.00;98995.13;5052948;28;1367;-78
2023/08/03 03:28:52;;;;;;;;;;;;;;;15.63;100.00;99005.19;5053507;28;1337;-79
2023/08/03 03:31:17;;;;;;;;;;;;;;;15.62;100.00;99014.00;5058033;28;1285;-78
2023/08/03 03:33:42;;;;;;;;;;;;;;;15.63;100.00;99013.03;5053141;28;1185;-79
2023/08/03 03:36:07;;;;;;;;;;;;;;;15.60;100.00;99005.56;5057791;28;1321;-78
2023/08/03 03:38:32;;;;;;;;;;;;;;;15.60;100.00;99021.25;5059311;28;1090;-78
2023/08/03 03:40:57;;;;;;;;;;;;;;;15.59;100.00;99009.97;5037678;28;1261;-80
2023/08/03 03:43:23;;;;;;;;;;;;;;;15.57;100.00;99019.81;5058021;28;1312;-79
2023/08/03 03:45:48;;;;;;;;;;;;;;;15.58;100.00;99033.69;5051998;28;1897;-79
2023/08/03 03:48:13;;;;;;;;;;;;;;;15.63;100.00;99031.31;5056981;28;1529;-79
2023/08/03 03:50:38;;;;;;;;;;;;;;;15.62;100.00;99029.69;5053972;28;1257;-79
2023/08/03 03:53:03;;;;;;;;;;;;;;;15.59;100.00;99040.53;5061823;28;1208;-79
2023/08/03 03:55:28;;;;;;;;;;;;;;;15.60;100.00;99042.94;5060593;28;1065;-79
2023/08/03 03:57:55;;;;;;;;;;;;;;;15.59;100.00;99051.78;5045694;28;1374;-79
2023/08/03 04:00:20;;;;;;;;;;;;;;;15.60;100.00;99053.41;5059636;28;1683;-79
2023/08/03 04:02:47;;;;;;;;;;;;;;;15.56;100.00;99054.81;5062501;28;1327;-80
2023/08/03 04:05:12;;;;;;;;;;;;;;;15.57;100.00;99058.22;5057248;28;1959;-79
2023/08/03 04:07:37;;;;;;;;;;;;;;;15.56;100.00;99067.06;5062987;28;1256;-79
2023/08/03 04:10:02;;;;;;;;;;;;;;;15.58;100.00;99071.06;5061339;28;1367;-79
2023/08/03 04:12:28;;;;;;;;;;;;;;;15.56;100.00;99082.75;5056932;28;1300;-79
2023/08/03 04:14:53;;;;;;;;;;;;;;;15.54;100.00;99080.34;5060350;28;1263;-79
2023/08/03 04:17:18;;;;;;;;;;;;;;;15.52;100.00;99082.31;5059808;28;1317;-79
2023/08/03 04:19:43;;;;;;;;;;;;;;;15.52;100.00;99087.56;5059025;28;1360;-80
2023/08/03 04:22:08;;;;;;;;;;;;;;;15.53;100.00;99098.81;5054018;28;1081;-79
2023/08/03 04:24:33;;;;;;;;;;;;;;;15.53;100.00;99096.19;5052010;28;1973;-78
2023/08/03 04:26:59;;;;;;;;;;;;;;;15.58;100.00;99106.84;5051284;28;1291;-79
2023/08/03 04:29:24;;;;;;;;;;;;;;;15.61;100.00;99109.09;5052643;28;1172;-79
2023/08/03 04:31:49;;;;;;;;;;;;;;;15.57;100.00;99115.72;5060374;28;1315;-79
2023/08/03 04:34:14;;;;;;;;;;;;;;;15.59;100.00;99124.13;5053824;28;1237;-79
2023/08/03 04:36:40;;;;;;;;;;;;;;;15.61;100.00;99122.16;5052640;28;1185;-79
2023/08/03 04:39:05;;;;;;;;;;;;;;;15.60;100.00;99123.16;5052265;28;1253;-79
2023/08/03 04:41:31;;;;;;;;;;;;;;;15.59;100.00;99124.13;5052486;28;1241;-79
2023/08/03 04:43:56;;;;;;;;;;;;;;;15.59;100.00;99130.16;5049270;28;1151;-79
2023/08/03 04:46:21;;;;;;;;;;;;;;;15.55;100.00;99128.19;5059117;28;1961;-79
2023/08/03 04:48:46;;;;;;;;;;;;;;;15.52;100.00;99128.56;5059484;28;1065;-78
2023/08/03 04:51:11;;;;;;;;;;;;;;;15.57;100.00;99136.63;5040294;28;1134;-78
2023/08/03 04:53:37;;;;;;;;;;;;;;;15.52;100.00;99139.00;5061595;28;1098;-78
2023/08/03 04:56:02;;;;;;;;;;;;;;;15.54;100.00;99139.59;5052240;28;1057;-78
2023/08/03 04:58:27;;;;;;;;;;;;;;;15.53;100.00;99140.63;5056930;28;1156;-78
2023/08/03 05:00:52;;;;;;;;;;;;;;;15.53;100.00;99145.84;5043487;28;1039;-79
2023/08/03 05:03:18;;;;;;;;;;;;;;;15.54;100.00;99150.91;5067749;28;1120;-79
2023/08/03 05:05:43;;;;;;;;;;;;;;;15.55;100.00;99156.91;5064268;28;1894;-79
2023/08/03 05:08:08;;;;;;;;;;;;;;;15.56;100.00;99161.13;5064694;28;1127;-79
2023/08/03 05:10:33;;;;;;;;;;;;;;;15.54;100.00;99165.75;5042446;28;1414;-79
2023/08/03 05:12:58;;;;;;;;;;;;;;;15.54;100.00;99173.56;5054642;28;1527;-79
2023/08/03 05:15:24;;;;;;;;;;;;;;;15.54;100.00;99173.56;5063522;28;1400;-78
2023/08/03 05:17:49;;;;;;;;;;;;;;;15.56;100.00;99176.81;5062910;28;1623;-78
2023/08/03 05:20:15;;;;;;;;;;;;;;;15.57;100.00;99184.44;5058404;28;1348;-79
2023/08/03 05:22:40;;;;;;;;;;;;;;;15.59;100.00;99192.88;5064567;28;1262;-79
2023/08/03 05:25:05;;;;;;;;;;;;;;;15.62;100.00;99191.72;5057878;28;1902;-78
2023/08/03 05:27:30;;;;;;;;;;;;;;;15.65;100.00;99186.09;5054434;28;1200;-78
2023/08/03 05:29:58;;;;;;;;;;;;;;;15.61;100.00;99197.94;5054970;28;1234;-78
2023/08/03 05:32:24;;;;;;;;;;;;;;;15.62;100.00;99196.94;5046012;28;1377;-79
2023/08/03 05:34:50;;;;;;;;;;;;;;;15.62;100.00;99202.16;5060676;28;1087;-78
2023/08/03 05:37:15;;;;;;;;;;;;;;;15.62;100.00;99196.94;5060119;28;1234;-79
2023/08/03 05:39:41;;;;;;;;;;;;;;;15.63;100.00;99209.03;5057704;28;1285;-78
2023/08/03 05:42:10;;;;;;;;;;;;;;;15.62;100.00;99218.69;5036814;28;1401;-78
2023/08/03 05:44:35;;;;;;;;;;;;;;;15.66;100.00;99219.09;5056964;28;1983;-78
2023/08/03 05:47:01;;;;;;;;;;;;;;;15.61;100.00;99221.47;5017534;28;1070007;-77
2023/08/03 05:49:28;;;;;;;;;;;;;;;15.61;100.00;99216.22;5062572;28;1232;-78
2023/08/03 05:51:53;;;;;;;;;;;;;;;15.61;100.00;99229.31;5054264;28;1325;-79
2023/08/03 05:54:19;;;;;;;;;;;;;;;15.61;100.00;99242.38;5044833;28;1326;-79
2023/08/03 05:56:44;;;;;;;;;;;;;;;15.61;100.00;99231.91;5059486;28;1473;-79
2023/08/03 05:59:20;;;;;;;;;;;;;;;15.64;100.00;99236.75;5054938;28;1364;-79
2023/08/03 06:01:48;;;;;;;;;;;;;;;15.60;100.00;99241.56;5062226;28;1304;-79
2023/08/03 06:04:14;;;;;;;;;;;;;;;15.62;100.00;99244.81;5061950;28;1913;-79
2023/08/03 06:06:39;;;;;;;;;;;;;;;15.64;100.00;99252.44;5044794;28;1715;-79
2023/08/03 06:09:04;;;;;;;;;;;;;;;15.65;100.00;99248.81;5043215;28;1529;-78
2023/08/03 06:11:30;;;;;;;;;;;;;;;15.64;100.00;99257.66;5037655;28;1501;-79
2023/08/03 06:13:56;;;;;;;;;;;;;;;15.64;100.00;99260.28;5053704;28;1256;-79
2023/08/03 06:16:23;;;;;;;;;;;;;;;15.61;100.00;99265.88;5061416;28;1169;-79
2023/08/03 06:18:53;;;;;;;;;;;;;;;15.58;100.00;99263.66;5043598;28;1251;-78
2023/08/03 06:21:19;;;;;;;;;;;;;;;15.58;100.00;99268.88;5056451;28;1370;-80
2023/08/03 06:23:45;;;;;;;;;;;;;;;15.59;100.00;99278.31;5063319;28;1216;-80
2023/08/03 06:26:12;;;;;;;;;;;;;;;15.55;100.00;99279.75;5060918;28;1925;-79
2023/08/03 06:28:37;;;;;;;;;;;;;;;15.54;100.00;99288.56;5063890;28;1236;-78
2023/08/03 06:31:09;;;;;;;;;;;;;;;15.52;100.00;99290.56;5061008;28;1478;-79
2023/08/03 06:33:35;;;;;;;;;;;;;;;15.51;100.00;99294.19;5058830;28;1319;-80
2023/08/03 06:36:00;;;;;;;;;;;;;;;15.49;100.00;99296.19;5054207;28;1505;-79
2023/08/03 06:38:27;;;;;;;;;;;;;;;15.48;100.00;99289.34;5055285;28;1140;-79
2023/08/03 06:40:52;;;;;;;;;;;;;;;15.47;100.00;99300.78;5059775;28;1185;-79
2023/08/03 06:43:17;;;;;;;;;;;;;;;15.44;100.00;99303.81;5043004;28;1342;-79
2023/08/03 06:45:43;;;;;;;;;;;;;;;15.43;100.00;99308.22;5052992;28;1890;-83
2023/08/03 06:48:09;;;;;;;;;;;;;;;15.41;100.00;99305.78;5057762;28;1060;-78
2023/08/03 06:50:34;;;;;;;;;;;;;;;15.41;100.00;99305.78;5057350;28;1160;-78
2023/08/03 06:53:00;;;;;;;;;;;;;;;15.43;100.00;99302.19;5056787;28;1117;-77
2023/08/03 06:55:25;;;;;;;;;;;;;;;15.43;100.00;99307.44;5057462;28;1163;-77
2023/08/03 06:57:50;;;;;;;;;;;;;;;15.48;100.00;99307.63;5038440;28;1117;-77
2023/08/03 07:00:16;;;;;;;;;;;;;;;15.47;100.00;99311.25;5055664;28;1233;-78
2023/08/03 07:02:42;;;;;;;;;;;;;;;15.49;100.00;99307.44;5057653;28;1137;-78
2023/08/03 07:05:07;;;;;;;;;;;;;;;15.50;100.00;99313.47;5056465;28;1973;-78
2023/08/03 07:07:32;;;;;;;;;;;;;;;15.52;100.00;99324.53;5057009;28;1179;-78
2023/08/03 07:09:59;;;;;;;;;;;;;;;15.50;100.00;99321.31;5054527;28;1235;-78
2023/08/03 07:12:24;;;;;;;;;;;;;;;15.51;100.00;99320.31;5055937;28;1334;-79
2023/08/03 07:14:49;;;;;;;;;;;;;;;15.54;100.00;99319.91;5061087;28;1741;-79
2023/08/03 07:17:15;;;;;;;;;;;;;;;15.52;100.00;99332.38;5061227;28;1338;-78
2023/08/03 07:19:41;;;;;;;;;;;;;;;15.54;100.00;99340.81;5059745;28;1661;-78
2023/08/03 07:22:06;;;;;;;;;;;;;;;15.53;100.00;99339.22;5058152;28;1431;-78
2023/08/03 07:24:32;;;;;;;;;;;;;;;15.55;100.00;99342.47;5061395;28;1959;-77
2023/08/03 07:27:00;;;;;;;;;;;;;;;15.56;100.00;99339.63;5055625;28;1235;-79
2023/08/03 07:29:25;;;;;;;;;;;;;;;15.55;100.00;99339.84;5061344;28;1296;-78
2023/08/03 07:31:50;;;;;;;;;;;;;;;15.57;100.00;99356.13;5055038;28;1232;-77
2023/08/03 07:34:15;;;;;;;;;;;;;;;15.55;100.00;99352.91;5060059;28;1185;-79
2023/08/03 07:36:40;;;;;;;;;;;;;;;15.54;100.00;99366.94;5058995;28;1041;-79
2023/08/03 07:39:06;;;;;;;;;;;;;;;15.54;100.00;99357.34;5061520;28;1291;-80
2023/08/03 07:41:31;;;;;;;;;;;;;;;15.56;100.00;99364.97;5052282;28;1140;-78
2023/08/03 07:43:56;;;;;;;;;;;;;;;15.57;100.00;99363.97;5055723;28;1185;-79
2023/08/03 07:46:21;;;;;;;;;;;;;;;15.61;100.00;99368.63;5055633;28;1957;-80
2023/08/03 07:48:46;;;;;;;;;;;;;;;15.62;100.00;99369.41;5057256;28;1229;-79
2023/08/03 07:51:15;;;;;;;;;;;;;;;15.67;100.00;99372.28;5038442;28;1329;-79
2023/08/03 07:53:41;;;;;;;;;;;;;;;15.66;100.00;99381.16;5053831;28;1514;-78
2023/08/03 07:56:16;;;;;;;;;;;;;;;15.68;100.00;99384.34;5038069;28;1484;-80
2023/08/03 07:58:41;;;;;;;;;;;;;;;15.71;100.00;99383.97;5058942;28;1315;-78
2023/08/03 08:01:07;;;;;;;;;;;;;;;15.72;100.00;99387.41;5055083;28;1299;-78
2023/08/03 08:03:32;;;;;;;;;;;;;;;15.76;100.00;99391.22;5055041;28;1333;-78
2023/08/03 08:06:24;;;;;;;;;;;;;;;15.81;100.00;99391.47;5049361;28;1894;-79
2023/08/03 08:08:50;;;;;;;;;;;;;;;15.84;100.00;99394.50;5048867;28;1369;-78
2023/08/03 08:11:16;;;;;;;;;;;;;;;15.86;100.00;99402.94;5058881;28;1366;-78
2023/08/03 08:13:42;;;;;;;;;;;;;;;15.93;100.00;99416.84;5056931;28;1676;-78
2023/08/03 08:16:08;;;;;;;;;;;;;;;16.00;100.00;99413.47;5050953;28;1509;-78
2023/08/03 08:18:34;;;;;;;;;;;;;;;15.96;100.00;99422.72;5056442;28;1537;-78
2023/08/03 08:21:00;;;;;;;;;;;;;;;16.01;100.00;99433.41;5064836;28;1295;-79
2023/08/03 08:23:25;;;;;;;;;;;;;;;15.96;100.00;99439.22;5061156;28;1034;-78
2023/08/03 08:25:50;;;;;;;;;;;;;;;15.96;100.00;99438.41;5064949;28;1893;-78
2023/08/03 08:28:16;;;;;;;;;;;;;;;15.94;100.00;99441.19;5059258;28;1725;-78
2023/08/03 08:30:41;;;;;;;;;;;;;;;15.95;100.00;99452.47;5063667;28;1290;-78
2023/08/03 08:33:06;;;;;;;;;;;;;;;15.97;100.00;99463.53;5061566;28;1158;-79
2023/08/03 08:35:31;;;;;;;;;;;;;;;15.98;100.00;99468.56;5061155;28;1256;-79
2023/08/03 08:37:59;;;;;;;;;;;;;;;16.01;100.00;99472.63;5049674;28;1215;-78
2023/08/03 08:40:24;;;;;;;;;;;;;;;16.03;100.00;99473.22;5061712;28;1180;-78
2023/08/03 08:42:53;;;;;;;;;;;;;;;16.04;100.00;99478.25;5061043;28;1129;-78
2023/08/03 08:45:18;;;;;;;;;;;;;;;16.09;100.00;99477.69;5063646;28;1902;-78
2023/08/03 08:47:45;;;;;;;;;;;;;;;16.14;100.00;99483.94;5059392;28;1022;-79
2023/08/03 08:50:10;;;;;;;;;;;;;;;16.15;100.00;99490.00;5056220;28;1554;-78
2023/08/03 08:52:35;;;;;;;;;;;;;;;16.16;100.00;99502.88;5053913;28;1224;-79
2023/08/03 08:55:11;;;;;;;;;;;;;;;16.20;100.00;99516.38;5056570;28;1097;-78
2023/08/03 08:57:36;;;;;;;;;;;;;;;16.29;100.00;99528.31;5053437;28;1091;-78
2023/08/03 09:00:05;;;;;;;;;;;;;;;16.36;100.00;99531.75;5053332;28;1010;-79
2023/08/03 09:02:30;;;;;;;;;;;;;;;16.45;100.00;99548.91;5058363;28;1164;-79
2023/08/03 09:04:55;;;;;;;;;;;;;;;16.52;100.00;99553.38;5053508;28;1954;-78
2023/08/03 09:07:20;;;;;;;;;;;;;;;16.63;100.00;99560.66;5057222;28;1290;-81
2023/08/03 09:09:46;;;;;;;;;;;;;;;16.59;100.00;99567.28;5045267;28;1415;-79
2023/08/03 09:12:24;;;;;;;;;;;;;;;16.56;100.00;99568.47;5059722;28;1363;-77
2023/08/03 09:14:50;;;;;;;;;;;;;;;16.61;100.00;99575.75;5058230;28;1323;-77
2023/08/03 09:17:16;;;;;;;;;;;;;;;16.60;100.00;99589.84;5060449;28;1306;-76
2023/08/03 09:19:41;;;;;;;;;;;;;;;16.59;100.00;99590.84;5065298;28;1430;-77
2023/08/03 09:22:07;;;;;;;;;;;;;;;16.72;100.00;99601.41;5062960;28;1117;-76
2023/08/03 09:24:32;;;;;;;;;;;;;;;16.71;100.00;99594.56;5057400;28;1979;-76
2023/08/03 09:26:57;;;;;;;;;;;;;;;16.79;100.00;99615.34;5064149;28;1581;-76
2023/08/03 09:29:26;;;;;;;;;;;;;;;16.90;100.00;99614.78;5063525;28;1424;-77
2023/08/03 09:31:58;;;;;;;;;;;;;;;16.91;100.00;99620.81;5068622;28;1318;-77
2023/08/03 09:34:33;;;;;;;;;;;;;;;16.97;100.00;99620.88;5061008;28;1367;-76
2023/08/03 09:36:58;;;;;;;;;;;;;;;17.02;100.00;99627.31;5065600;28;1242;-77
2023/08/03 09:39:24;;;;;;;;;;;;;;;17.11;100.00;99626.16;5039288;28;1214;-77
2023/08/03 09:41:50;;;;;;;;;;;;;;;17.31;100.00;99636.66;5062601;28;1044;-81
2023/08/03 09:44:16;;;;;;;;;;;;;;;17.43;100.00;99638.53;5057533;28;1368;-79
2023/08/03 09:46:41;;;;;;;;;;;;;;;17.69;100.00;99650.06;5035879;28;2279;-77
2023/08/03 09:49:06;;;;;;;;;;;;;;;17.74;100.00;99658.16;5057798;28;1265;-77
2023/08/03 09:51:33;;;;;;;;;;;;;;;17.85;100.00;99654.94;5053633;28;1290;-78
2023/08/03 09:54:01;;;;;;;;;;;;;;;17.89;100.00;99661.41;5061824;28;1376;-76
2023/08/03 09:56:31;;;;;;;;;;;;;;;18.02;100.00;99671.91;5055913;28;958;-77
2023/08/03 09:58:58;;;;;;;;;;;;;;;18.22;100.00;99671.88;5058318;28;1783;-77
2023/08/03 10:01:24;;;;;;;;;;;;;;;18.35;100.00;99671.09;5058317;28;1299;-78
2023/08/03 10:03:51;;;;;;;;;;;;;;;18.42;100.00;99671.88;5059067;28;1341;-78
2023/08/03 10:06:17;;;;;;;;;;;;;;;18.54;100.00;99679.94;5055326;28;1925;-78
2023/08/03 10:09:05;;;;;;;;;;;;;;;18.64;100.00;99679.50;5051599;28;1073;-77
2023/08/03 10:11:33;;;;;;;;;;;;;;;18.72;100.00;99688.00;5045700;28;1406;-77
2023/08/03 10:14:00;;;;;;;;;;;;;;;18.84;100.00;99696.06;5054302;28;1050;-78
2023/08/03 10:16:26;;;;;;;;;;;;;;;18.91;100.00;99696.03;5061293;28;1064;-79
2023/08/03 10:18:51;;;;;;;;;;;;;;;19.04;100.00;99691.56;5057336;28;1215;-78
2023/08/03 10:21:17;;;;;;;;;;;;;;;19.20;100.00;99699.97;5055582;28;1357;-79
2023/08/03 10:24:01;;;;;;;;;;;;;;;19.18;100.00;99707.28;5057561;28;1231;-80
2023/08/03 10:26:26;;;;;;;;;;;;;;;19.30;100.00;99708.22;5057633;28;1898;-78
2023/08/03 10:28:51;;;;;;;;;;;;;;;19.39;100.00;99703.56;5035850;28;1226;-78
2023/08/03 10:31:19;;;;;;;;;;;;;;;19.58;100.00;99716.63;5059033;28;1509;-78
2023/08/03 10:33:48;;;;;;;;;;;;;;;19.70;100.00;99722.00;5055243;28;1477;-78
2023/08/03 10:36:26;;;;;;;;;;;;;;;19.84;100.00;99727.97;5053242;28;1375;-79
2023/08/03 10:38:51;;;;;;;;;;;;;;;19.93;100.00;99726.72;5043494;28;1401;-78
2023/08/03 10:41:21;;;;;;;;;;;;;;;19.98;100.00;99724.25;5057495;28;1214;-77
2023/08/03 10:44:06;;;;;;;;;;;;;;;20.07;100.00;99730.91;5057409;28;1122;-78
2023/08/03 10:46:37;;;;;;;;;;;;;;;20.03;100.00;99726.25;5053924;28;2013;-80
2023/08/03 10:49:23;;;;;;;;;;;;;;;20.00;100.00;99731.94;5061678;28;1053;-79
2023/08/03 10:51:49;;;;;;;;;;;;;;;19.91;100.00;99728.78;5052951;28;1066;-80
2023/08/03 10:54:15;;;;;;;;;;;;;;;19.88;100.00;99745.78;5055413;28;1165;-80
2023/08/03 10:57:00;;;;;;;;;;;;;;;19.91;100.00;99743.75;5055184;28;1048;-80
2023/08/03 10:59:25;;;;;;;;;;;;;;;19.87;100.00;99764.41;5041371;28;1351;-80
2023/08/03 11:01:50;;;;;;;;;;;;;;;19.94;100.00;99759.91;5060714;28;1117;-79
2023/08/03 11:04:15;;;;;;;;;;;;;;;19.99;100.00;99773.25;5036995;28;1236;-80
2023/08/03 11:06:40;;;;;;;;;;;;;;;20.04;100.00;99791.84;5054680;28;1951;-79
2023/08/03 11:09:05;;;;;;;;;;;;;;;19.92;98.69;99804.06;5056557;28;1219;-79
2023/08/03 11:11:34;;;;;;;;;;;;;;;19.57;97.53;99828.06;5056373;28;1336;-78
2023/08/03 11:13:59;;;;;;;;;;;;;;;19.00;98.21;99827.00;5060941;28;1442;-79
2023/08/03 11:16:24;;;;;;;;;;;;;;;18.71;98.59;99825.63;5036349;28;1449;-78
2023/08/03 11:18:49;;;;;;;;;;;;;;;18.57;98.62;99837.09;5058763;28;1354;-78
2023/08/03 11:21:15;;;;;;;;;;;;;;;18.31;99.13;99837.88;5060002;28;1058;-79
2023/08/03 11:23:40;;;;;;;;;;;;;;;18.17;100.00;99846.72;5056740;28;1274;-80
2023/08/03 11:26:08;;;;;;;;;;;;;;;18.08;100.00;99843.47;5057774;28;1894;-79
2023/08/03 11:28:40;;;;;;;;;;;;;;;18.03;100.00;99859.81;5061455;28;1176;-79
2023/08/03 11:31:13;;;;;;;;;;;;;;;17.96;100.00;99861.63;5056698;28;1045;-79
2023/08/03 11:33:39;;;;;;;;;;;;;;;17.91;100.00;99857.97;5053344;28;1349;-80
2023/08/03 11:36:04;;;;;;;;;;;;;;;17.90;100.00;99872.91;5057185;28;1231;-79
2023/08/03 11:38:29;;;;;;;;;;;;;;;17.84;100.00;99878.94;5042592;28;1300;-78
2023/08/03 11:40:55;;;;;;;;;;;;;;;17.86;100.00;99881.34;5053907;28;1244;-79
2023/08/03 11:43:20;;;;;;;;;;;;;;;17.88;100.00;99893.25;5036088;28;1498;-79
2023/08/03 11:45:46;;;;;;;;;;;;;;;17.90;100.00;99899.13;5060400;28;1944;-79
2023/08/03 11:48:11;;;;;;;;;;;;;;;17.89;100.00;99902.75;5062175;28;1089;-78
2023/08/03 11:50:36;;;;;;;;;;;;;;;17.84;100.00;99907.78;5054067;28;1302;-79
2023/08/03 11:53:02;;;;;;;;;;;;;;;17.86;100.00;99918.06;5057561;28;1393;-78
2023/08/03 11:55:28;;;;;;;;;;;;;;;17.58;100.00;99928.56;5053238;28;1233;-78
2023/08/03 11:58:10;;;;;;;;;;;;;;;17.57;100.00;99934.81;5055900;28;1180;-78
2023/08/03 12:00:35;;;;;;;;;;;;;;;17.59;100.00;99943.31;5033358;28;1294;-79
2023/08/03 12:03:01;;;;;;;;;;;;;;;17.51;100.00;99947.69;5039345;28;1229;-78
2023/08/03 12:05:26;;;;;;;;;;;;;;;17.51;100.00;99942.44;5056696;28;1969;-78
2023/08/03 12:07:54;;;;;;;;;;;;;;;17.53;100.00;99955.38;5054670;28;1243;-78
2023/08/03 12:10:19;;;;;;;;;;;;;;;17.61;100.00;99967.53;5055251;28;1357;-78
2023/08/03 12:12:45;;;;;;;;;;;;;;;17.65;100.00;99963.50;5036156;28;1479;-78
2023/08/03 12:15:10;;;;;;;;;;;;;;;17.67;100.00;99967.56;5055861;28;1542;-78
2023/08/03 12:17:36;;;;;;;;;;;;;;;17.62;100.00;99969.16;5038771;28;1255;-78
2023/08/03 12:20:01;;;;;;;;;;;;;;;17.57;100.00;99968.91;5056145;28;1220;-78
2023/08/03 12:22:26;;;;;;;;;;;;;;;17.50;100.00;99992.47;5056645;28;1068;-78
2023/08/03 12:24:51;;;;;;;;;;;;;;;17.42;100.00;100001.25;5043919;28;1959;-79
2023/08/03 12:27:17;;;;;;;;;;;;;;;17.41;100.00;99999.66;5052641;28;1228;-79
2023/08/03 12:29:42;;;;;;;;;;;;;;;17.32;100.00;100011.28;5041374;28;1410;-78
2023/08/03 12:32:07;;;;;;;;;;;;;;;17.41;100.00;100012.75;5054654;28;1074;-78
2023/08/03 12:34:32;;;;;;;;;;;;;;;17.41;100.00;100019.81;5058760;28;1231;-78
2023/08/03 12:36:58;;;;;;;;;;;;;;;17.40;100.00;100019.00;5050402;28;1538;-78
2023/08/03 12:39:23;;;;;;;;;;;;;;;17.42;100.00;100029.28;5055804;28;1012;-79
2023/08/03 12:41:48;;;;;;;;;;;;;;;17.43;100.00;100034.38;5057949;28;1140;-78